createdAt,value
2023-05-22T19:12:17.529Z,100048.25
2023-05-22T19:14:44.812Z,100035.44
2023-05-22T19:17:12.502Z,100043.72
2023-05-22T19:19:39.876Z,100035.06
2023-05-22T19:22:06.934Z,100030.09
2023-05-22T19:24:34.080Z,100030.31
2023-05-22T19:27:01.191Z,100038.22
2023-05-22T19:29:28.457Z,100028.31
2023-05-22T19:31:58.841Z,100027.88
2023-05-22T19:34:26.217Z,100026.84
2023-05-22T19:36:57.645Z,100020.84
2023-05-22T19:39:25.385Z,100022.53
2023-05-22T19:41:52.900Z,100019.84
2023-05-22T19:44:20.464Z,100024.59
2023-05-22T19:46:48.296Z,100010.94
2023-05-22T19:49:15.734Z,100018.63
2023-05-22T19:51:43.617Z,100021.91
2023-05-22T19:54:10.796Z,100021.91
2023-05-22T19:56:38.606Z,100013.22
2023-05-22T19:59:05.958Z,100010.53
2023-05-22T20:01:33.133Z,100011.97
2023-05-22T20:04:01.293Z,100012.81
2023-05-22T20:06:31.672Z,100012.59
2023-05-22T20:08:59.113Z,100010.31
2023-05-22T20:11:28.437Z,100007.00
2023-05-22T20:13:58.666Z,100008.22
2023-05-22T20:16:28.546Z,100007.59
2023-05-22T20:18:56.825Z,100004.25
2023-05-22T20:21:24.100Z,100009.06
2023-05-22T20:23:51.540Z,100009.47
2023-05-22T20:26:20.024Z,100005.13
2023-05-22T20:28:47.300Z,100013.63
2023-05-22T20:31:14.563Z,100000.16
2023-05-22T20:33:41.696Z,100001.38
2023-05-22T20:36:09.690Z,99999.53
2023-05-22T20:38:36.963Z,99999.34
2023-05-22T20:41:08.673Z,99991.25
2023-05-22T20:43:36.960Z,99988.72
2023-05-22T20:46:04.633Z,99991.03
2023-05-22T20:48:31.796Z,99990.84
2023-05-22T20:50:58.801Z,99995.19
2023-05-22T20:53:26.171Z,99993.78
2023-05-22T20:55:53.457Z,99998.75
2023-05-22T20:58:20.554Z,99988.81
2023-05-22T21:00:49.611Z,100004.34
2023-05-22T21:03:17.868Z,100003.94
2023-05-22T21:05:45.089Z,99988.38
2023-05-22T21:08:12.293Z,99990.03
2023-05-22T21:10:39.546Z,100002.50
2023-05-22T21:13:07.013Z,99986.72
2023-05-22T21:15:33.980Z,99984.22
2023-05-22T21:18:01.206Z,99978.81
2023-05-22T21:20:28.350Z,99981.31
2023-05-22T21:22:55.495Z,99998.34
2023-05-22T21:25:22.506Z,99978.81
2023-05-22T21:27:49.678Z,99979.66
2023-05-22T21:30:16.787Z,100004.16
2023-05-22T21:32:44.059Z,99989.22
2023-05-22T21:35:11.316Z,99980.28
2023-05-22T21:37:40.078Z,99978.00
2023-05-22T21:40:09.033Z,99984.44
2023-05-22T21:42:45.928Z,99979.66
2023-05-22T21:45:14.533Z,99979.88
2023-05-22T21:47:41.777Z,99983.00
2023-05-22T21:50:09.174Z,99976.28
2023-05-22T21:52:36.297Z,99976.72
2023-05-22T21:55:04.133Z,99976.94
2023-05-22T21:57:31.306Z,99984.63
2023-05-22T21:59:58.443Z,99978.16
2023-05-22T22:02:25.641Z,99977.53
2023-05-22T22:04:52.861Z,99964.06
2023-05-22T22:07:19.910Z,99963.41
2023-05-22T22:09:46.940Z,99965.50
2023-05-22T22:12:14.001Z,99952.22
2023-05-22T22:14:41.181Z,99955.13
2023-05-22T22:17:08.323Z,99951.78
2023-05-22T22:19:36.312Z,99954.25
2023-05-22T22:22:03.674Z,99953.03
2023-05-22T22:24:30.681Z,99950.31
2023-05-22T22:26:57.723Z,99956.31
2023-05-22T22:29:24.754Z,99949.88
2023-05-22T22:31:52.987Z,99949.66
2023-05-22T22:34:20.271Z,99950.69
2023-05-22T22:36:47.639Z,99946.72
2023-05-22T22:39:14.699Z,99951.91
2023-05-22T22:41:42.998Z,99956.66
2023-05-22T22:44:11.332Z,99946.28
2023-05-22T22:46:38.486Z,99951.03
2023-05-22T22:49:05.647Z,99944.19
2023-05-22T22:51:32.763Z,99944.59
2023-05-22T22:53:59.952Z,99945.84
2023-05-22T22:56:30.199Z,99940.88
2023-05-22T22:58:57.485Z,99941.28
2023-05-22T23:01:24.891Z,99932.56
2023-05-22T23:03:52.271Z,99933.78
2023-05-22T23:06:19.654Z,99936.28
2023-05-22T23:08:46.750Z,99935.00
2023-05-22T23:11:13.801Z,99938.75
2023-05-22T23:13:43.401Z,99938.09
2023-05-22T23:16:10.651Z,99934.75
2023-05-22T23:18:37.931Z,99926.44
2023-05-22T23:21:04.950Z,99930.19
2023-05-22T23:23:32.126Z,99926.84
2023-05-22T23:25:59.278Z,99920.81
2023-05-22T23:28:26.514Z,99923.72
2023-05-22T23:30:53.586Z,99919.56
2023-05-22T23:33:21.392Z,99919.97
2023-05-22T23:35:48.542Z,99919.72
2023-05-22T23:38:15.665Z,99917.03
2023-05-22T23:40:42.679Z,99919.31
2023-05-22T23:43:09.755Z,99915.34
2023-05-22T23:45:36.807Z,99918.22
2023-05-22T23:48:04.367Z,99911.19
2023-05-22T23:50:31.409Z,99909.72
2023-05-22T23:52:58.449Z,99909.13
2023-05-22T23:55:25.531Z,99895.03
2023-05-22T23:57:52.668Z,99895.22
